Terminal Aerodrome Forecast
Issued by NWS Wilmington, OH

Home | Current Version | Previous Version | Text Only | Print | Product List | Glossary On
Versions: 1 2 3 4 5 6 7 8 9 10 11 12 13 14 15 16 17 18 19 20 21 22 23 24 25 26
000
FTUS41 KILN 182333
TAFILN
TAF
KILN 182333Z 1900/1924 24007KT P6SM OVC008
      TEMPO 1900/1903 OVC010
     FM190300 23004KT P6SM OVC012
     FM191000 VRB03KT 5SM BR FEW015 BKN250
     FM191600 13005KT P6SM BKN250
     FM192200 11005KT P6SM OVC070=

USA.gov is the U.S. government's official web portal to all federal, state and local government web resources and services.